sensor_id;sensor_type;location;lat;lon;timestamp;P1;durP1;ratioP1;P2;durP2;ratioP2
11548;SDS011;61444;59.472;18.306;2024-01-06T00:01:24;4.27;;;2.00;;
11548;SDS011;61444;59.472;18.306;2024-01-06T00:03:33;4.23;;;2.13;;
11548;SDS011;61444;59.472;18.306;2024-01-06T00:05:42;6.80;;;2.80;;
11548;SDS011;61444;59.472;18.306;2024-01-06T00:07:50;6.90;;;3.17;;
11548;SDS011;61444;59.472;18.306;2024-01-06T00:10:00;2.73;;;1.43;;
11548;SDS011;61444;59.472;18.306;2024-01-06T00:12:10;3.20;;;1.80;;
11548;SDS011;61444;59.472;18.306;2024-01-06T00:14:18;2.27;;;1.43;;
11548;SDS011;61444;59.472;18.306;2024-01-06T00:16:27;2.30;;;1.13;;
11548;SDS011;61444;59.472;18.306;2024-01-06T00:18:36;4.40;;;1.70;;
11548;SDS011;61444;59.472;18.306;2024-01-06T00:20:45;6.00;;;2.60;;
11548;SDS011;61444;59.472;18.306;2024-01-06T00:22:53;2.53;;;1.63;;
11548;SDS011;61444;59.472;18.306;2024-01-06T00:25:07;3.77;;;1.53;;
11548;SDS011;61444;59.472;18.306;2024-01-06T00:27:15;2.73;;;1.13;;
11548;SDS011;61444;59.472;18.306;2024-01-06T00:29:24;3.60;;;1.50;;
11548;SDS011;61444;59.472;18.306;2024-01-06T00:31:33;3.70;;;1.70;;
11548;SDS011;61444;59.472;18.306;2024-01-06T00:33:43;4.90;;;2.13;;
11548;SDS011;61444;59.472;18.306;2024-01-06T00:35:52;3.20;;;1.40;;
11548;SDS011;61444;59.472;18.306;2024-01-06T00:38:02;4.47;;;1.80;;
11548;SDS011;61444;59.472;18.306;2024-01-06T00:40:13;1.87;;;1.30;;
11548;SDS011;61444;59.472;18.306;2024-01-06T00:42:22;1.67;;;0.70;;
11548;SDS011;61444;59.472;18.306;2024-01-06T00:44:31;4.23;;;1.97;;
11548;SDS011;61444;59.472;18.306;2024-01-06T00:46:39;6.40;;;1.47;;
11548;SDS011;61444;59.472;18.306;2024-01-06T00:48:48;3.47;;;1.43;;
11548;SDS011;61444;59.472;18.306;2024-01-06T00:50:57;2.50;;;1.37;;
11548;SDS011;61444;59.472;18.306;2024-01-06T00:53:06;4.43;;;2.00;;
11548;SDS011;61444;59.472;18.306;2024-01-06T00:55:17;1.73;;;1.00;;
11548;SDS011;61444;59.472;18.306;2024-01-06T00:57:26;2.60;;;1.70;;
11548;SDS011;61444;59.472;18.306;2024-01-06T00:59:35;1.73;;;1.17;;
11548;SDS011;61444;59.472;18.306;2024-01-06T01:01:42;2.93;;;1.70;;
11548;SDS011;61444;59.472;18.306;2024-01-06T01:03:51;3.23;;;1.33;;
11548;SDS011;61444;59.472;18.306;2024-01-06T01:06:00;4.07;;;1.20;;
11548;SDS011;61444;59.472;18.306;2024-01-06T01:08:09;3.03;;;1.37;;
11548;SDS011;61444;59.472;18.306;2024-01-06T01:10:22;4.70;;;1.83;;
11548;SDS011;61444;59.472;18.306;2024-01-06T01:12:31;2.13;;;1.13;;
11548;SDS011;61444;59.472;18.306;2024-01-06T01:14:40;4.37;;;1.40;;
11548;SDS011;61444;59.472;18.306;2024-01-06T01:16:49;3.47;;;2.00;;
11548;SDS011;61444;59.472;18.306;2024-01-06T01:18:57;2.70;;;1.47;;
11548;SDS011;61444;59.472;18.306;2024-01-06T01:21:05;3.20;;;1.87;;
11548;SDS011;61444;59.472;18.306;2024-01-06T01:23:14;2.27;;;1.17;;
11548;SDS011;61444;59.472;18.306;2024-01-06T01:25:25;2.67;;;1.23;;
11548;SDS011;61444;59.472;18.306;2024-01-06T01:27:34;4.80;;;1.63;;
11548;SDS011;61444;59.472;18.306;2024-01-06T01:29:42;3.03;;;1.33;;
11548;SDS011;61444;59.472;18.306;2024-01-06T01:31:51;1.87;;;0.93;;
11548;SDS011;61444;59.472;18.306;2024-01-06T01:34:00;2.13;;;1.20;;
11548;SDS011;61444;59.472;18.306;2024-01-06T01:36:09;1.63;;;0.97;;
11548;SDS011;61444;59.472;18.306;2024-01-06T01:38:17;1.70;;;1.20;;
11548;SDS011;61444;59.472;18.306;2024-01-06T01:40:28;2.83;;;0.90;;
11548;SDS011;61444;59.472;18.306;2024-01-06T01:42:37;1.70;;;1.10;;
11548;SDS011;61444;59.472;18.306;2024-01-06T01:44:46;1.40;;;1.07;;
11548;SDS011;61444;59.472;18.306;2024-01-06T01:46:55;5.50;;;1.20;;
11548;SDS011;61444;59.472;18.306;2024-01-06T01:49:04;1.63;;;1.10;;
11548;SDS011;61444;59.472;18.306;2024-01-06T01:51:13;2.30;;;0.50;;
11548;SDS011;61444;59.472;18.306;2024-01-06T01:53:22;1.53;;;1.00;;
11548;SDS011;61444;59.472;18.306;2024-01-06T01:55:34;2.60;;;1.10;;
11548;SDS011;61444;59.472;18.306;2024-01-06T01:57:43;3.03;;;0.83;;
11548;SDS011;61444;59.472;18.306;2024-01-06T01:59:53;3.50;;;0.80;;
11548;SDS011;61444;59.472;18.306;2024-01-06T02:02:03;2.20;;;1.30;;
11548;SDS011;61444;59.472;18.306;2024-01-06T02:04:12;2.47;;;0.90;;
11548;SDS011;61444;59.472;18.306;2024-01-06T02:06:21;2.67;;;1.30;;
11548;SDS011;61444;59.472;18.306;2024-01-06T02:08:30;2.70;;;1.03;;
11548;SDS011;61444;59.472;18.306;2024-01-06T02:10:42;2.30;;;1.13;;
11548;SDS011;61444;59.472;18.306;2024-01-06T02:12:51;1.73;;;1.03;;
11548;SDS011;61444;59.472;18.306;2024-01-06T02:15:00;2.93;;;1.17;;
11548;SDS011;61444;59.472;18.306;2024-01-06T02:17:10;1.20;;;1.03;;
11548;SDS011;61444;59.472;18.306;2024-01-06T02:19:19;1.20;;;0.70;;
11548;SDS011;61444;59.472;18.306;2024-01-06T02:21:28;1.27;;;0.60;;
11548;SDS011;61444;59.472;18.306;2024-01-06T02:23:37;2.50;;;0.97;;
11548;SDS011;61444;59.472;18.306;2024-01-06T02:25:46;5.30;;;2.07;;
11548;SDS011;61444;59.472;18.306;2024-01-06T02:27:55;2.90;;;1.30;;
11548;SDS011;61444;59.472;18.306;2024-01-06T02:30:04;2.93;;;1.07;;
11548;SDS011;61444;59.472;18.306;2024-01-06T02:32:13;4.13;;;1.83;;
11548;SDS011;61444;59.472;18.306;2024-01-06T02:34:23;0.20;;;0.20;;
11548;SDS011;61444;59.472;18.306;2024-01-06T02:36:32;5.10;;;1.40;;
11548;SDS011;61444;59.472;18.306;2024-01-06T02:38:44;1.17;;;0.37;;
11548;SDS011;61444;59.472;18.306;2024-01-06T02:40:54;1.87;;;0.87;;
11548;SDS011;61444;59.472;18.306;2024-01-06T02:43:04;1.53;;;1.13;;
11548;SDS011;61444;59.472;18.306;2024-01-06T02:45:13;4.27;;;1.03;;
11548;SDS011;61444;59.472;18.306;2024-01-06T02:47:23;3.70;;;0.57;;
11548;SDS011;61444;59.472;18.306;2024-01-06T02:49:31;2.17;;;1.13;;
11548;SDS011;61444;59.472;18.306;2024-01-06T02:51:39;0.83;;;0.50;;
11548;SDS011;61444;59.472;18.306;2024-01-06T02:53:50;2.57;;;1.40;;
11548;SDS011;61444;59.472;18.306;2024-01-06T02:55:59;2.83;;;1.13;;
11548;SDS011;61444;59.472;18.306;2024-01-06T02:58:08;3.43;;;1.70;;
11548;SDS011;61444;59.472;18.306;2024-01-06T03:00:17;3.00;;;1.40;;
11548;SDS011;61444;59.472;18.306;2024-01-06T03:02:26;5.30;;;1.33;;
11548;SDS011;61444;59.472;18.306;2024-01-06T03:04:34;1.63;;;1.17;;
11548;SDS011;61444;59.472;18.306;2024-01-06T03:06:43;2.27;;;1.07;;
11548;SDS011;61444;59.472;18.306;2024-01-06T03:09:00;3.43;;;1.53;;
11548;SDS011;61444;59.472;18.306;2024-01-06T03:11:10;3.03;;;0.90;;
11548;SDS011;61444;59.472;18.306;2024-01-06T03:13:18;1.83;;;0.93;;
11548;SDS011;61444;59.472;18.306;2024-01-06T03:15:27;1.30;;;0.83;;
11548;SDS011;61444;59.472;18.306;2024-01-06T03:17:37;1.73;;;0.77;;
11548;SDS011;61444;59.472;18.306;2024-01-06T03:19:48;0.43;;;0.37;;
11548;SDS011;61444;59.472;18.306;2024-01-06T03:21:56;4.03;;;1.63;;
11548;SDS011;61444;59.472;18.306;2024-01-06T03:24:07;3.20;;;0.80;;
11548;SDS011;61444;59.472;18.306;2024-01-06T03:26:16;3.10;;;0.93;;
11548;SDS011;61444;59.472;18.306;2024-01-06T03:28:25;1.27;;;0.80;;
11548;SDS011;61444;59.472;18.306;2024-01-06T03:30:34;2.10;;;1.00;;
11548;SDS011;61444;59.472;18.306;2024-01-06T03:32:43;2.10;;;0.90;;
11548;SDS011;61444;59.472;18.306;2024-01-06T03:34:52;0.67;;;0.60;;
11548;SDS011;61444;59.472;18.306;2024-01-06T03:37:00;2.97;;;1.37;;
11548;SDS011;61444;59.472;18.306;2024-01-06T03:39:10;2.43;;;1.43;;
11548;SDS011;61444;59.472;18.306;2024-01-06T03:41:19;2.33;;;0.80;;
11548;SDS011;61444;59.472;18.306;2024-01-06T03:43:27;1.43;;;1.20;;
11548;SDS011;61444;59.472;18.306;2024-01-06T03:45:36;2.30;;;1.30;;
11548;SDS011;61444;59.472;18.306;2024-01-06T03:47:46;1.83;;;1.03;;
11548;SDS011;61444;59.472;18.306;2024-01-06T03:49:55;1.83;;;1.03;;
11548;SDS011;61444;59.472;18.306;2024-01-06T03:52:04;1.50;;;0.87;;
11548;SDS011;61444;59.472;18.306;2024-01-06T03:54:16;1.97;;;1.23;;
11548;SDS011;61444;59.472;18.306;2024-01-06T03:56:26;1.90;;;1.07;;
11548;SDS011;61444;59.472;18.306;2024-01-06T03:58:35;2.13;;;0.93;;
11548;SDS011;61444;59.472;18.306;2024-01-06T04:00:44;1.67;;;0.60;;
11548;SDS011;61444;59.472;18.306;2024-01-06T04:02:53;1.50;;;0.77;;
11548;SDS011;61444;59.472;18.306;2024-01-06T04:05:00;1.33;;;0.90;;
11548;SDS011;61444;59.472;18.306;2024-01-06T04:07:11;3.37;;;1.70;;
11548;SDS011;61444;59.472;18.306;2024-01-06T04:09:22;2.30;;;1.23;;
11548;SDS011;61444;59.472;18.306;2024-01-06T04:11:31;2.10;;;1.00;;
11548;SDS011;61444;59.472;18.306;2024-01-06T04:13:39;3.33;;;1.27;;
11548;SDS011;61444;59.472;18.306;2024-01-06T04:15:47;2.07;;;0.90;;
11548;SDS011;61444;59.472;18.306;2024-01-06T04:18:01;1.73;;;1.07;;
11548;SDS011;61444;59.472;18.306;2024-01-06T04:20:10;1.80;;;1.20;;
11548;SDS011;61444;59.472;18.306;2024-01-06T04:22:19;2.80;;;1.13;;
11548;SDS011;61444;59.472;18.306;2024-01-06T04:24:30;1.47;;;1.10;;
11548;SDS011;61444;59.472;18.306;2024-01-06T04:26:43;2.47;;;1.43;;
11548;SDS011;61444;59.472;18.306;2024-01-06T04:28:52;2.40;;;0.80;;
11548;SDS011;61444;59.472;18.306;2024-01-06T04:31:01;1.77;;;1.00;;
11548;SDS011;61444;59.472;18.306;2024-01-06T04:33:11;1.33;;;0.87;;
11548;SDS011;61444;59.472;18.306;2024-01-06T04:35:20;2.50;;;1.00;;
11548;SDS011;61444;59.472;18.306;2024-01-06T04:37:29;1.30;;;0.60;;
11548;SDS011;61444;59.472;18.306;2024-01-06T04:39:40;2.07;;;1.27;;
11548;SDS011;61444;59.472;18.306;2024-01-06T04:41:49;2.60;;;0.77;;
11548;SDS011;61444;59.472;18.306;2024-01-06T04:44:01;2.53;;;1.33;;
11548;SDS011;61444;59.472;18.306;2024-01-06T04:46:10;2.73;;;1.33;;
11548;SDS011;61444;59.472;18.306;2024-01-06T04:48:18;0.37;;;0.37;;
11548;SDS011;61444;59.472;18.306;2024-01-06T04:50:28;1.47;;;0.90;;
11548;SDS011;61444;59.472;18.306;2024-01-06T04:52:37;3.33;;;1.33;;
11548;SDS011;61444;59.472;18.306;2024-01-06T04:54:48;2.60;;;1.23;;
11548;SDS011;61444;59.472;18.306;2024-01-06T04:56:57;1.77;;;0.87;;
11548;SDS011;61444;59.472;18.306;2024-01-06T04:59:11;2.53;;;1.10;;
11548;SDS011;61444;59.472;18.306;2024-01-06T05:01:20;2.50;;;1.00;;
11548;SDS011;61444;59.472;18.306;2024-01-06T05:03:29;1.97;;;1.30;;
11548;SDS011;61444;59.472;18.306;2024-01-06T05:05:38;1.60;;;0.87;;
11548;SDS011;61444;59.472;18.306;2024-01-06T05:07:47;3.47;;;1.00;;
11548;SDS011;61444;59.472;18.306;2024-01-06T05:09:57;1.33;;;0.93;;
11548;SDS011;61444;59.472;18.306;2024-01-06T05:12:06;1.67;;;1.00;;
11548;SDS011;61444;59.472;18.306;2024-01-06T05:14:15;2.00;;;1.17;;
11548;SDS011;61444;59.472;18.306;2024-01-06T05:16:24;1.70;;;0.77;;
11548;SDS011;61444;59.472;18.306;2024-01-06T05:18:34;2.07;;;0.90;;
11548;SDS011;61444;59.472;18.306;2024-01-06T05:20:43;1.53;;;0.80;;
11548;SDS011;61444;59.472;18.306;2024-01-06T05:22:52;0.30;;;0.30;;
11548;SDS011;61444;59.472;18.306;2024-01-06T05:25:03;1.60;;;0.70;;
11548;SDS011;61444;59.472;18.306;2024-01-06T05:27:12;1.53;;;0.80;;
11548;SDS011;61444;59.472;18.306;2024-01-06T05:29:20;0.73;;;0.67;;
11548;SDS011;61444;59.472;18.306;2024-01-06T05:31:32;0.93;;;0.67;;
11548;SDS011;61444;59.472;18.306;2024-01-06T05:33:41;0.97;;;0.70;;
11548;SDS011;61444;59.472;18.306;2024-01-06T05:35:50;1.17;;;0.83;;
11548;SDS011;61444;59.472;18.306;2024-01-06T05:38:00;1.77;;;0.83;;
11548;SDS011;61444;59.472;18.306;2024-01-06T05:40:11;2.83;;;1.10;;
11548;SDS011;61444;59.472;18.306;2024-01-06T05:42:20;1.87;;;1.23;;
11548;SDS011;61444;59.472;18.306;2024-01-06T05:44:28;0.90;;;0.73;;
11548;SDS011;61444;59.472;18.306;2024-01-06T05:46:37;3.53;;;1.00;;
11548;SDS011;61444;59.472;18.306;2024-01-06T05:48:46;2.80;;;1.27;;
11548;SDS011;61444;59.472;18.306;2024-01-06T05:50:55;0.97;;;0.63;;
11548;SDS011;61444;59.472;18.306;2024-01-06T05:53:04;1.70;;;0.73;;
11548;SDS011;61444;59.472;18.306;2024-01-06T05:55:15;1.17;;;0.83;;
11548;SDS011;61444;59.472;18.306;2024-01-06T05:57:24;1.37;;;0.63;;
11548;SDS011;61444;59.472;18.306;2024-01-06T05:59:33;1.60;;;0.90;;
11548;SDS011;61444;59.472;18.306;2024-01-06T06:01:42;2.33;;;0.97;;
11548;SDS011;61444;59.472;18.306;2024-01-06T06:03:51;0.60;;;0.60;;
11548;SDS011;61444;59.472;18.306;2024-01-06T06:06:00;3.03;;;1.03;;
11548;SDS011;61444;59.472;18.306;2024-01-06T06:08:09;1.73;;;1.10;;
11548;SDS011;61444;59.472;18.306;2024-01-06T06:10:20;0.97;;;0.50;;
11548;SDS011;61444;59.472;18.306;2024-01-06T06:12:29;3.37;;;1.10;;
11548;SDS011;61444;59.472;18.306;2024-01-06T06:14:38;0.67;;;0.47;;
11548;SDS011;61444;59.472;18.306;2024-01-06T06:16:47;1.50;;;0.90;;
11548;SDS011;61444;59.472;18.306;2024-01-06T06:18:56;1.97;;;1.83;;
11548;SDS011;61444;59.472;18.306;2024-01-06T06:21:05;0.43;;;0.30;;
11548;SDS011;61444;59.472;18.306;2024-01-06T06:23:15;5.37;;;2.03;;
11548;SDS011;61444;59.472;18.306;2024-01-06T06:25:25;1.80;;;1.13;;
11548;SDS011;61444;59.472;18.306;2024-01-06T06:27:34;1.00;;;0.73;;
11548;SDS011;61444;59.472;18.306;2024-01-06T06:29:43;4.37;;;1.80;;
11548;SDS011;61444;59.472;18.306;2024-01-06T06:31:53;1.63;;;0.50;;
11548;SDS011;61444;59.472;18.306;2024-01-06T06:34:02;0.93;;;0.53;;
11548;SDS011;61444;59.472;18.306;2024-01-06T06:36:14;1.20;;;0.70;;
11548;SDS011;61444;59.472;18.306;2024-01-06T06:38:25;1.70;;;1.10;;
11548;SDS011;61444;59.472;18.306;2024-01-06T06:40:34;1.67;;;0.60;;
11548;SDS011;61444;59.472;18.306;2024-01-06T06:42:43;0.73;;;0.67;;
11548;SDS011;61444;59.472;18.306;2024-01-06T06:44:52;0.70;;;0.50;;
11548;SDS011;61444;59.472;18.306;2024-01-06T06:47:01;2.00;;;1.27;;
11548;SDS011;61444;59.472;18.306;2024-01-06T06:49:10;2.07;;;1.10;;
11548;SDS011;61444;59.472;18.306;2024-01-06T06:51:19;3.00;;;1.33;;
11548;SDS011;61444;59.472;18.306;2024-01-06T06:53:31;1.40;;;0.87;;
11548;SDS011;61444;59.472;18.306;2024-01-06T06:55:41;0.63;;;0.40;;
11548;SDS011;61444;59.472;18.306;2024-01-06T06:57:50;0.90;;;0.90;;
11548;SDS011;61444;59.472;18.306;2024-01-06T06:59:59;1.00;;;0.60;;
11548;SDS011;61444;59.472;18.306;2024-01-06T07:02:09;2.07;;;0.70;;
11548;SDS011;61444;59.472;18.306;2024-01-06T07:04:18;2.53;;;1.10;;
11548;SDS011;61444;59.472;18.306;2024-01-06T07:06:27;3.70;;;1.70;;
11548;SDS011;61444;59.472;18.306;2024-01-06T07:08:36;2.17;;;1.40;;
11548;SDS011;61444;59.472;18.306;2024-01-06T07:10:46;4.07;;;1.80;;
11548;SDS011;61444;59.472;18.306;2024-01-06T07:12:55;2.97;;;1.40;;
11548;SDS011;61444;59.472;18.306;2024-01-06T07:15:04;2.00;;;1.07;;
11548;SDS011;61444;59.472;18.306;2024-01-06T07:17:14;2.73;;;1.30;;
11548;SDS011;61444;59.472;18.306;2024-01-06T07:19:23;4.03;;;1.57;;
11548;SDS011;61444;59.472;18.306;2024-01-06T07:21:32;2.87;;;1.50;;
11548;SDS011;61444;59.472;18.306;2024-01-06T07:23:41;2.13;;;1.40;;
11548;SDS011;61444;59.472;18.306;2024-01-06T07:25:51;2.33;;;1.33;;
11548;SDS011;61444;59.472;18.306;2024-01-06T07:28:00;2.53;;;1.50;;
11548;SDS011;61444;59.472;18.306;2024-01-06T07:30:10;1.30;;;1.00;;
11548;SDS011;61444;59.472;18.306;2024-01-06T07:32:19;2.50;;;1.13;;
11548;SDS011;61444;59.472;18.306;2024-01-06T07:34:28;2.40;;;1.27;;
11548;SDS011;61444;59.472;18.306;2024-01-06T07:36:37;2.30;;;1.53;;
11548;SDS011;61444;59.472;18.306;2024-01-06T07:38:46;2.97;;;1.30;;
11548;SDS011;61444;59.472;18.306;2024-01-06T07:40:57;2.37;;;1.57;;
11548;SDS011;61444;59.472;18.306;2024-01-06T07:43:06;2.80;;;1.60;;
11548;SDS011;61444;59.472;18.306;2024-01-06T07:45:17;1.40;;;0.93;;
11548;SDS011;61444;59.472;18.306;2024-01-06T07:47:25;2.90;;;1.47;;
11548;SDS011;61444;59.472;18.306;2024-01-06T07:49:34;3.80;;;1.67;;
11548;SDS011;61444;59.472;18.306;2024-01-06T07:51:43;2.40;;;1.50;;
11548;SDS011;61444;59.472;18.306;2024-01-06T07:53:52;3.17;;;1.97;;
11548;SDS011;61444;59.472;18.306;2024-01-06T07:56:02;2.60;;;1.60;;
11548;SDS011;61444;59.472;18.306;2024-01-06T07:58:11;3.73;;;1.90;;
11548;SDS011;61444;59.472;18.306;2024-01-06T08:00:20;5.27;;;1.97;;
11548;SDS011;61444;59.472;18.306;2024-01-06T08:02:29;3.23;;;1.83;;
11548;SDS011;61444;59.472;18.306;2024-01-06T08:04:38;2.90;;;1.20;;
11548;SDS011;61444;59.472;18.306;2024-01-06T08:06:46;3.00;;;1.53;;
11548;SDS011;61444;59.472;18.306;2024-01-06T08:08:58;2.00;;;1.17;;
11548;SDS011;61444;59.472;18.306;2024-01-06T08:11:08;2.77;;;1.37;;
11548;SDS011;61444;59.472;18.306;2024-01-06T08:13:17;1.37;;;1.17;;
11548;SDS011;61444;59.472;18.306;2024-01-06T08:15:26;2.90;;;1.00;;
11548;SDS011;61444;59.472;18.306;2024-01-06T08:17:34;2.87;;;1.10;;
11548;SDS011;61444;59.472;18.306;2024-01-06T08:19:44;4.63;;;1.13;;
11548;SDS011;61444;59.472;18.306;2024-01-06T08:21:54;1.23;;;0.80;;
11548;SDS011;61444;59.472;18.306;2024-01-06T08:24:03;1.83;;;1.13;;
11548;SDS011;61444;59.472;18.306;2024-01-06T08:26:14;2.00;;;1.23;;
11548;SDS011;61444;59.472;18.306;2024-01-06T08:28:22;5.03;;;2.50;;
11548;SDS011;61444;59.472;18.306;2024-01-06T08:30:31;6.67;;;3.70;;
11548;SDS011;61444;59.472;18.306;2024-01-06T08:32:41;6.07;;;3.40;;
11548;SDS011;61444;59.472;18.306;2024-01-06T08:34:49;8.03;;;4.33;;
11548;SDS011;61444;59.472;18.306;2024-01-06T08:36:58;5.47;;;3.17;;
11548;SDS011;61444;59.472;18.306;2024-01-06T08:39:08;8.47;;;5.20;;
11548;SDS011;61444;59.472;18.306;2024-01-06T08:41:18;4.03;;;2.37;;
11548;SDS011;61444;59.472;18.306;2024-01-06T08:43:27;5.83;;;3.40;;
11548;SDS011;61444;59.472;18.306;2024-01-06T08:45:37;5.83;;;3.63;;
11548;SDS011;61444;59.472;18.306;2024-01-06T08:47:45;5.63;;;3.57;;
11548;SDS011;61444;59.472;18.306;2024-01-06T08:49:54;3.97;;;2.33;;
11548;SDS011;61444;59.472;18.306;2024-01-06T08:52:04;2.80;;;1.70;;
11548;SDS011;61444;59.472;18.306;2024-01-06T08:54:13;3.43;;;1.90;;
11548;SDS011;61444;59.472;18.306;2024-01-06T08:56:24;4.97;;;2.37;;
11548;SDS011;61444;59.472;18.306;2024-01-06T08:58:33;1.70;;;1.37;;
11548;SDS011;61444;59.472;18.306;2024-01-06T09:00:41;3.00;;;1.60;;
11548;SDS011;61444;59.472;18.306;2024-01-06T09:02:50;2.43;;;1.60;;
11548;SDS011;61444;59.472;18.306;2024-01-06T09:04:59;3.03;;;1.47;;
11548;SDS011;61444;59.472;18.306;2024-01-06T09:07:08;2.30;;;1.27;;
11548;SDS011;61444;59.472;18.306;2024-01-06T09:09:17;3.57;;;1.60;;
11548;SDS011;61444;59.472;18.306;2024-01-06T09:11:28;1.97;;;1.43;;
11548;SDS011;61444;59.472;18.306;2024-01-06T09:13:37;3.43;;;1.50;;
11548;SDS011;61444;59.472;18.306;2024-01-06T09:15:46;3.03;;;1.50;;
11548;SDS011;61444;59.472;18.306;2024-01-06T09:17:55;5.03;;;1.73;;
11548;SDS011;61444;59.472;18.306;2024-01-06T09:20:04;2.57;;;1.13;;
11548;SDS011;61444;59.472;18.306;2024-01-06T09:22:14;4.83;;;1.73;;
11548;SDS011;61444;59.472;18.306;2024-01-06T09:24:23;2.53;;;1.40;;
11548;SDS011;61444;59.472;18.306;2024-01-06T09:26:33;3.10;;;1.73;;
11548;SDS011;61444;59.472;18.306;2024-01-06T09:28:42;2.63;;;1.50;;
11548;SDS011;61444;59.472;18.306;2024-01-06T09:30:51;2.57;;;1.43;;
11548;SDS011;61444;59.472;18.306;2024-01-06T09:33:01;3.07;;;1.67;;
11548;SDS011;61444;59.472;18.306;2024-01-06T09:35:10;1.50;;;1.03;;
11548;SDS011;61444;59.472;18.306;2024-01-06T09:37:20;2.63;;;1.27;;
11548;SDS011;61444;59.472;18.306;2024-01-06T09:39:29;2.13;;;1.30;;
11548;SDS011;61444;59.472;18.306;2024-01-06T09:41:40;2.60;;;1.13;;
11548;SDS011;61444;59.472;18.306;2024-01-06T09:43:50;2.17;;;1.40;;
11548;SDS011;61444;59.472;18.306;2024-01-06T09:46:02;1.93;;;1.20;;
11548;SDS011;61444;59.472;18.306;2024-01-06T09:48:13;2.57;;;1.40;;
11548;SDS011;61444;59.472;18.306;2024-01-06T09:50:22;3.77;;;1.60;;
11548;SDS011;61444;59.472;18.306;2024-01-06T09:52:32;2.77;;;1.40;;
11548;SDS011;61444;59.472;18.306;2024-01-06T09:54:41;4.97;;;1.93;;
11548;SDS011;61444;59.472;18.306;2024-01-06T09:56:55;3.17;;;1.60;;
11548;SDS011;61444;59.472;18.306;2024-01-06T09:59:04;2.23;;;1.43;;
11548;SDS011;61444;59.472;18.306;2024-01-06T10:01:13;3.37;;;1.63;;
11548;SDS011;61444;59.472;18.306;2024-01-06T10:03:23;2.67;;;1.70;;
11548;SDS011;61444;59.472;18.306;2024-01-06T10:05:33;3.47;;;1.33;;
11548;SDS011;61444;59.472;18.306;2024-01-06T10:07:43;4.30;;;1.80;;
11548;SDS011;61444;59.472;18.306;2024-01-06T10:09:53;2.60;;;1.17;;
11548;SDS011;61444;59.472;18.306;2024-01-06T10:12:05;1.83;;;1.13;;
11548;SDS011;61444;59.472;18.306;2024-01-06T10:14:14;2.77;;;1.70;;
11548;SDS011;61444;59.472;18.306;2024-01-06T10:16:23;4.90;;;1.70;;
11548;SDS011;61444;59.472;18.306;2024-01-06T10:18:32;1.83;;;0.97;;
11548;SDS011;61444;59.472;18.306;2024-01-06T10:20:43;2.07;;;1.47;;
11548;SDS011;61444;59.472;18.306;2024-01-06T10:22:52;1.93;;;1.30;;
11548;SDS011;61444;59.472;18.306;2024-01-06T10:25:01;3.87;;;1.60;;
11548;SDS011;61444;59.472;18.306;2024-01-06T10:27:12;2.77;;;1.50;;
11548;SDS011;61444;59.472;18.306;2024-01-06T10:29:20;2.13;;;0.90;;
11548;SDS011;61444;59.472;18.306;2024-01-06T10:31:29;2.87;;;1.50;;
11548;SDS011;61444;59.472;18.306;2024-01-06T10:33:38;2.13;;;1.53;;
11548;SDS011;61444;59.472;18.306;2024-01-06T10:35:47;4.37;;;1.40;;
11548;SDS011;61444;59.472;18.306;2024-01-06T10:37:56;2.30;;;1.20;;
11548;SDS011;61444;59.472;18.306;2024-01-06T10:40:08;2.10;;;1.40;;
11548;SDS011;61444;59.472;18.306;2024-01-06T10:42:19;1.83;;;1.37;;
11548;SDS011;61444;59.472;18.306;2024-01-06T10:44:28;2.20;;;1.53;;
11548;SDS011;61444;59.472;18.306;2024-01-06T10:46:37;3.13;;;1.60;;
11548;SDS011;61444;59.472;18.306;2024-01-06T10:48:47;2.90;;;1.57;;
11548;SDS011;61444;59.472;18.306;2024-01-06T10:50:56;1.90;;;1.20;;
11548;SDS011;61444;59.472;18.306;2024-01-06T10:53:08;3.40;;;1.53;;
11548;SDS011;61444;59.472;18.306;2024-01-06T10:55:18;1.83;;;1.10;;
11548;SDS011;61444;59.472;18.306;2024-01-06T10:57:29;1.90;;;1.03;;
11548;SDS011;61444;59.472;18.306;2024-01-06T10:59:39;3.00;;;1.50;;
11548;SDS011;61444;59.472;18.306;2024-01-06T11:01:48;2.40;;;1.43;;
11548;SDS011;61444;59.472;18.306;2024-01-06T11:03:58;6.00;;;1.70;;
11548;SDS011;61444;59.472;18.306;2024-01-06T11:06:08;3.40;;;1.33;;
11548;SDS011;61444;59.472;18.306;2024-01-06T11:08:17;3.47;;;1.63;;
11548;SDS011;61444;59.472;18.306;2024-01-06T11:10:27;3.10;;;1.60;;
11548;SDS011;61444;59.472;18.306;2024-01-06T11:12:37;2.87;;;1.53;;
11548;SDS011;61444;59.472;18.306;2024-01-06T11:14:46;2.90;;;1.27;;
11548;SDS011;61444;59.472;18.306;2024-01-06T11:16:55;4.67;;;1.80;;
11548;SDS011;61444;59.472;18.306;2024-01-06T11:19:41;3.17;;;1.83;;
11548;SDS011;61444;59.472;18.306;2024-01-06T11:21:39;1.20;;;0.90;;
11548;SDS011;61444;59.472;18.306;2024-01-06T11:26:15;1.60;;;1.00;;
11548;SDS011;61444;59.472;18.306;2024-01-06T11:28:26;2.87;;;1.43;;
11548;SDS011;61444;59.472;18.306;2024-01-06T11:30:35;0.50;;;0.43;;
11548;SDS011;61444;59.472;18.306;2024-01-06T11:32:44;3.37;;;1.60;;
11548;SDS011;61444;59.472;18.306;2024-01-06T11:34:54;1.53;;;1.00;;
11548;SDS011;61444;59.472;18.306;2024-01-06T11:37:03;2.13;;;1.27;;
11548;SDS011;61444;59.472;18.306;2024-01-06T11:41:50;3.30;;;1.53;;
11548;SDS011;61444;59.472;18.306;2024-01-06T11:44:00;1.27;;;0.90;;
11548;SDS011;61444;59.472;18.306;2024-01-06T11:46:09;2.47;;;1.20;;
11548;SDS011;61444;59.472;18.306;2024-01-06T11:48:19;2.90;;;1.20;;
11548;SDS011;61444;59.472;18.306;2024-01-06T11:50:32;2.73;;;1.40;;
11548;SDS011;61444;59.472;18.306;2024-01-06T11:52:41;3.90;;;1.40;;
11548;SDS011;61444;59.472;18.306;2024-01-06T11:54:50;3.53;;;1.00;;
11548;SDS011;61444;59.472;18.306;2024-01-06T11:56:59;3.23;;;1.37;;
11548;SDS011;61444;59.472;18.306;2024-01-06T11:59:09;2.57;;;0.93;;
11548;SDS011;61444;59.472;18.306;2024-01-06T12:01:17;1.90;;;1.20;;
11548;SDS011;61444;59.472;18.306;2024-01-06T12:03:26;0.70;;;0.60;;
11548;SDS011;61444;59.472;18.306;2024-01-06T12:05:37;2.27;;;1.10;;
11548;SDS011;61444;59.472;18.306;2024-01-06T12:07:52;3.10;;;1.30;;
11548;SDS011;61444;59.472;18.306;2024-01-06T12:10:02;2.10;;;0.90;;
11548;SDS011;61444;59.472;18.306;2024-01-06T12:12:11;1.93;;;1.10;;
11548;SDS011;61444;59.472;18.306;2024-01-06T12:14:23;2.50;;;1.30;;
11548;SDS011;61444;59.472;18.306;2024-01-06T12:16:32;2.33;;;1.20;;
11548;SDS011;61444;59.472;18.306;2024-01-06T12:18:41;2.43;;;1.00;;
11548;SDS011;61444;59.472;18.306;2024-01-06T12:20:49;3.07;;;1.30;;
11548;SDS011;61444;59.472;18.306;2024-01-06T12:22:58;3.77;;;1.50;;
11548;SDS011;61444;59.472;18.306;2024-01-06T12:25:10;4.63;;;1.77;;
11548;SDS011;61444;59.472;18.306;2024-01-06T12:27:22;2.47;;;1.33;;
11548;SDS011;61444;59.472;18.306;2024-01-06T12:29:34;3.00;;;1.40;;
11548;SDS011;61444;59.472;18.306;2024-01-06T12:31:46;0.87;;;0.73;;
11548;SDS011;61444;59.472;18.306;2024-01-06T12:33:55;3.57;;;1.70;;
11548;SDS011;61444;59.472;18.306;2024-01-06T12:36:06;1.53;;;0.80;;
11548;SDS011;61444;59.472;18.306;2024-01-06T12:38:26;3.30;;;1.60;;
11548;SDS011;61444;59.472;18.306;2024-01-06T12:40:35;3.27;;;2.00;;
11548;SDS011;61444;59.472;18.306;2024-01-06T12:42:44;4.53;;;1.93;;
11548;SDS011;61444;59.472;18.306;2024-01-06T12:44:55;3.23;;;1.63;;
11548;SDS011;61444;59.472;18.306;2024-01-06T12:47:03;3.53;;;2.00;;
11548;SDS011;61444;59.472;18.306;2024-01-06T12:49:12;3.30;;;1.63;;
11548;SDS011;61444;59.472;18.306;2024-01-06T12:51:20;2.90;;;1.60;;
11548;SDS011;61444;59.472;18.306;2024-01-06T12:53:29;4.53;;;2.23;;